Terminal Aerodrome Forecast
Issued by NWS

Home | Current Version | Previous Version | Text Only | Print | Product List | Glossary On
Versions: 1 2 3 4 5 6 7 8 9 10 11 12
000
FTUS42 KMLB 011722
TAFSFB
TAF
KSFB 011722Z 0118/0218 27011KT P6SM SCT040
     FM020000 27005KT P6SM FEW070
     FM020600 33003KT P6SM SCT250
     FM021400 10006KT P6SM SCT030=

USA.gov is the U.S. government's official web portal to all federal, state and local government web resources and services.